createdAt,value
2022-11-21T00:04:33.867Z,93.18
2022-11-21T00:09:41.510Z,93.29
2022-11-21T00:14:49.578Z,92.94
2022-11-21T00:19:56.981Z,92.41
2022-11-21T00:25:04.191Z,92.06
2022-11-21T00:30:11.949Z,92.57
2022-11-21T00:35:17.764Z,92.85
2022-11-21T00:40:26.499Z,92.60
2022-11-21T00:45:33.707Z,92.41
2022-11-21T00:50:39.477Z,92.41
2022-11-21T00:55:46.581Z,92.27
2022-11-21T01:00:54.129Z,92.26
2022-11-21T01:06:07.113Z,92.13
2022-11-21T01:11:16.873Z,91.83
2022-11-21T01:16:26.952Z,92.22
2022-11-21T01:21:35.219Z,92.34
2022-11-21T01:26:49.684Z,92.42
2022-11-21T01:32:03.181Z,92.22
2022-11-21T01:37:10.533Z,91.99
2022-11-21T01:42:18.250Z,91.83
2022-11-21T01:47:25.506Z,92.05
2022-11-21T01:52:32.400Z,91.91
2022-11-21T01:57:42.888Z,91.94
2022-11-21T02:02:55.405Z,92.36
2022-11-21T02:08:07.301Z,92.23
2022-11-21T02:13:14.694Z,92.32
2022-11-21T02:18:22.436Z,92.56
2022-11-21T02:23:38.832Z,92.61
2022-11-21T02:28:46.573Z,92.57
2022-11-21T02:34:08.283Z,92.70
2022-11-21T02:39:21.327Z,92.24
2022-11-21T02:44:36.708Z,92.27
2022-11-21T02:49:51.634Z,92.10
2022-11-21T03:00:30.778Z,91.60
2022-11-21T03:05:40.017Z,90.35
2022-11-21T03:10:47.103Z,90.33
2022-11-21T03:15:55.754Z,91.09
2022-11-21T03:21:03.161Z,91.27
2022-11-21T03:26:10.275Z,90.33
2022-11-21T03:31:15.906Z,90.08
2022-11-21T03:36:23.455Z,90.97
2022-11-21T03:41:30.647Z,91.13
2022-11-21T03:46:39.643Z,91.42
2022-11-21T03:51:47.571Z,90.99
2022-11-21T03:57:20.880Z,91.23
2022-11-21T04:02:28.245Z,90.58
2022-11-21T04:07:35.626Z,91.21
2022-11-21T04:12:43.105Z,90.29
2022-11-21T04:17:51.112Z,90.11
2022-11-21T04:22:58.564Z,90.11
2022-11-21T04:28:07.266Z,90.50
2022-11-21T04:33:15.172Z,90.20
2022-11-21T04:38:22.287Z,90.11
2022-11-21T04:43:27.795Z,90.72
2022-11-21T04:48:39.325Z,90.70
2022-11-21T04:53:47.346Z,90.96
2022-11-21T04:58:57.232Z,91.16
2022-11-21T05:04:04.341Z,90.80
2022-11-21T05:09:10.121Z,90.78
2022-11-21T05:14:17.776Z,90.71
2022-11-21T05:19:25.914Z,91.29
2022-11-21T05:24:33.116Z,91.07
2022-11-21T05:29:40.551Z,91.18
2022-11-21T05:34:48.242Z,91.01
2022-11-21T05:39:55.568Z,90.85
2022-11-21T05:45:03.969Z,90.38
2022-11-21T05:50:12.252Z,90.02
2022-11-21T05:55:19.804Z,89.80
2022-11-21T06:00:27.315Z,90.22
2022-11-21T06:05:34.807Z,89.78
2022-11-21T06:10:42.109Z,90.59
2022-11-21T06:15:49.777Z,91.41
2022-11-21T06:21:01.535Z,91.32
2022-11-21T06:26:12.769Z,90.55
2022-11-21T06:31:22.250Z,90.29
2022-11-21T06:36:29.276Z,90.04
2022-11-21T06:41:36.378Z,90.09
2022-11-21T06:46:48.238Z,91.18
2022-11-21T06:51:57.929Z,91.02
2022-11-21T07:00:48.899Z,91.47
2022-11-21T07:05:59.888Z,90.82
2022-11-21T07:11:25.578Z,91.32
2022-11-21T07:16:35.180Z,91.10
2022-11-21T07:21:43.272Z,91.46
2022-11-21T07:26:51.386Z,92.07
2022-11-21T07:31:58.806Z,92.28
2022-11-21T07:37:05.429Z,92.23
2022-11-21T07:42:13.115Z,92.89
2022-11-21T07:47:20.758Z,93.41
2022-11-21T07:52:30.391Z,94.54
2022-11-21T07:57:37.846Z,95.35
2022-11-21T08:02:45.887Z,96.02
2022-11-21T08:07:52.888Z,96.58
2022-11-21T08:12:59.801Z,96.75
2022-11-21T08:18:12.719Z,96.93
2022-11-21T08:23:19.802Z,97.28
2022-11-21T08:28:27.007Z,97.36
2022-11-21T08:33:32.576Z,96.90
2022-11-21T08:38:39.585Z,96.72
2022-11-21T08:43:46.914Z,96.50
2022-11-21T08:48:53.926Z,95.87
2022-11-21T08:54:03.002Z,95.60
2022-11-21T08:59:10.766Z,95.31
2022-11-21T09:04:18.171Z,94.76
2022-11-21T09:09:25.939Z,94.56
2022-11-21T09:14:52.275Z,94.31
2022-11-21T09:19:59.809Z,94.07
2022-11-21T09:28:12.734Z,93.92
2022-11-21T09:33:19.737Z,93.85
2022-11-21T09:38:27.257Z,93.86
2022-11-21T09:43:55.549Z,93.49
2022-11-21T09:49:06.638Z,93.29
2022-11-21T09:54:21.913Z,93.12
2022-11-21T09:59:36.374Z,92.63
2022-11-21T10:04:43.956Z,92.34
2022-11-21T10:10:05.427Z,91.89
2022-11-21T10:15:25.363Z,91.67
2022-11-21T10:20:47.692Z,91.57
2022-11-21T10:25:59.390Z,91.21
2022-11-21T10:31:10.423Z,91.31
2022-11-21T10:36:27.064Z,90.85
2022-11-21T10:41:47.914Z,90.40
2022-11-21T10:47:00.332Z,90.48
2022-11-21T10:52:13.152Z,90.17
2022-11-21T10:57:21.914Z,90.09
2022-11-21T11:02:29.434Z,89.90
2022-11-21T11:07:36.545Z,89.53
2022-11-21T11:13:08.744Z,89.15
2022-11-21T11:18:26.909Z,88.65
2022-11-21T11:23:34.052Z,88.61
2022-11-21T11:28:41.662Z,88.65
2022-11-21T11:33:58.585Z,88.53
2022-11-21T11:39:18.673Z,88.47
2022-11-21T11:44:51.390Z,87.96
2022-11-21T11:50:13.588Z,87.89
2022-11-21T11:55:27.712Z,87.65
2022-11-21T12:00:41.881Z,87.89
2022-11-21T12:06:02.449Z,87.84
2022-11-21T12:11:38.764Z,87.97
2022-11-21T12:16:47.193Z,87.71
2022-11-21T12:21:54.740Z,87.74
2022-11-21T12:27:15.439Z,87.37
2022-11-21T12:32:36.461Z,87.40
2022-11-21T12:37:56.047Z,87.42
2022-11-21T12:43:18.088Z,87.43
2022-11-21T12:49:04.824Z,87.22
2022-11-21T12:54:31.895Z,87.52
2022-11-21T12:59:49.590Z,87.34
2022-11-21T13:04:59.041Z,87.51
2022-11-21T13:10:14.280Z,87.43
2022-11-21T13:15:31.758Z,87.71
2022-11-21T13:20:52.257Z,87.59
2022-11-21T13:26:02.071Z,87.75
2022-11-21T13:31:31.234Z,87.63
2022-11-21T13:36:40.451Z,87.89
2022-11-21T13:42:22.143Z,88.01
2022-11-21T13:48:11.251Z,88.01
2022-11-21T13:53:42.253Z,88.13
2022-11-21T13:59:03.969Z,88.20
2022-11-21T14:04:43.989Z,88.35
2022-11-21T14:09:53.163Z,88.26
2022-11-21T14:15:21.958Z,88.38
2022-11-21T14:20:32.665Z,88.22
2022-11-21T14:25:47.565Z,88.23
2022-11-21T14:31:00.995Z,88.24
2022-11-21T14:36:11.029Z,88.08
2022-11-21T14:41:32.062Z,88.35
2022-11-21T14:46:41.302Z,88.17
2022-11-21T14:51:52.391Z,88.02
2022-11-21T14:57:01.591Z,88.36
2022-11-21T15:02:15.894Z,88.65
2022-11-21T15:07:31.843Z,88.70
2022-11-21T15:12:47.900Z,88.92
2022-11-21T15:23:35.649Z,89.57
2022-11-21T15:28:58.742Z,89.71
2022-11-21T15:39:38.003Z,90.28
2022-11-21T15:45:00.926Z,90.21
2022-11-21T15:50:09.755Z,90.30
2022-11-21T15:55:22.216Z,91.00
2022-11-21T16:00:29.361Z,91.39
2022-11-21T16:05:36.772Z,91.39
2022-11-21T16:10:44.687Z,91.61
2022-11-21T16:15:52.100Z,91.84
2022-11-21T16:21:11.736Z,92.12
2022-11-21T16:26:19.518Z,92.64
2022-11-21T16:31:28.655Z,92.54
2022-11-21T16:36:35.840Z,92.52
2022-11-21T16:41:46.031Z,92.86
2022-11-21T16:46:55.571Z,92.84
2022-11-21T16:52:03.198Z,93.04
2022-11-21T16:57:10.687Z,92.88
2022-11-21T17:02:17.680Z,93.29
2022-11-21T17:07:25.449Z,93.17
2022-11-21T17:12:36.250Z,93.02
2022-11-21T17:17:43.539Z,93.34
2022-11-21T17:22:50.617Z,93.28
2022-11-21T17:27:58.219Z,93.62
2022-11-21T17:33:05.280Z,93.47
2022-11-21T17:38:12.412Z,93.41
2022-11-21T17:43:18.107Z,92.98
2022-11-21T17:48:25.496Z,92.78
2022-11-21T17:59:03.489Z,92.78
2022-11-21T18:04:15.039Z,92.93
2022-11-21T18:09:22.813Z,92.76
2022-11-21T18:14:28.874Z,92.89
2022-11-21T18:19:36.224Z,93.16
2022-11-21T18:24:43.043Z,92.92
2022-11-21T18:29:48.735Z,92.76
2022-11-21T18:34:56.253Z,92.65
2022-11-21T18:40:03.769Z,92.92
2022-11-21T18:45:12.369Z,92.92
2022-11-21T18:50:19.901Z,92.88
2022-11-21T18:55:28.220Z,93.01
2022-11-21T19:00:35.222Z,92.97
2022-11-21T19:05:44.255Z,92.73
2022-11-21T19:10:51.962Z,92.92
2022-11-21T19:16:01.789Z,92.87
2022-11-21T19:21:11.094Z,92.82
2022-11-21T19:26:21.775Z,92.70
2022-11-21T19:31:28.923Z,92.52
2022-11-21T19:43:12.004Z,92.32
2022-11-21T19:48:19.729Z,92.99
2022-11-21T19:53:28.255Z,92.97
2022-11-21T19:58:35.312Z,92.92
2022-11-21T20:03:44.537Z,92.74
2022-11-21T20:08:55.469Z,92.96
2022-11-21T20:14:02.926Z,92.69
2022-11-21T20:19:13.632Z,92.66
2022-11-21T20:24:21.255Z,92.76
2022-11-21T20:29:28.766Z,93.15
2022-11-21T20:34:36.449Z,93.22
2022-11-21T20:39:43.531Z,93.31
2022-11-21T20:45:54.489Z,93.08
2022-11-21T20:50:48.837Z,92.89
2022-11-21T20:55:46.459Z,93.17
2022-11-21T21:00:53.773Z,93.55
2022-11-21T21:06:05.592Z,93.79
2022-11-21T21:11:36.927Z,94.33
2022-11-21T21:16:44.785Z,94.87
2022-11-21T21:21:52.127Z,95.29
2022-11-21T21:26:57.662Z,95.73
2022-11-21T21:32:04.952Z,95.66
2022-11-21T21:37:12.363Z,95.17
2022-11-21T21:42:19.877Z,95.41
2022-11-21T21:47:27.179Z,96.26
2022-11-21T21:52:35.693Z,96.92
2022-11-21T21:57:47.179Z,97.15
2022-11-21T22:03:01.282Z,97.19
2022-11-21T22:08:08.762Z,97.28
2022-11-21T22:13:16.073Z,97.04
2022-11-21T22:18:22.277Z,97.15
2022-11-21T22:23:30.830Z,96.95
2022-11-21T22:28:38.077Z,96.67
2022-11-21T22:33:44.663Z,96.67
2022-11-21T22:38:55.186Z,96.00
2022-11-21T22:44:02.658Z,95.23
2022-11-21T22:49:11.329Z,95.31
2022-11-21T22:54:20.956Z,95.47
2022-11-21T22:59:29.873Z,95.45
2022-11-21T23:04:37.200Z,94.67
2022-11-21T23:09:44.709Z,94.09
2022-11-21T23:14:53.041Z,93.82
2022-11-21T23:20:00.644Z,93.32
2022-11-21T23:25:08.988Z,93.17
2022-11-21T23:30:18.412Z,93.18
2022-11-21T23:35:25.414Z,93.04
2022-11-21T23:40:32.718Z,93.03
2022-11-21T23:45:40.025Z,93.01
2022-11-21T23:50:45.763Z,92.43
2022-11-21T23:55:53.910Z,91.43
